sensor_id;sensor_type;location;lat;lon;timestamp;pressure;altitude;pressure_sealevel;temperature;humidity
65376;BME280;51976;47.332;9.404;2023-03-12T00:02:02;92225.16;;;1.84;76.89
65376;BME280;51976;47.332;9.404;2023-03-12T00:04:28;92217.75;;;1.86;76.52
65376;BME280;51976;47.332;9.404;2023-03-12T00:06:55;92241.38;;;2.04;76.44
65376;BME280;51976;47.332;9.404;2023-03-12T00:09:20;92248.31;;;2.05;76.69
65376;BME280;51976;47.332;9.404;2023-03-12T00:11:46;92240.44;;;1.93;76.72
65376;BME280;51976;47.332;9.404;2023-03-12T00:14:11;92251.50;;;1.85;76.93
65376;BME280;51976;47.332;9.404;2023-03-12T00:16:36;92237.56;;;1.78;77.30
65376;BME280;51976;47.332;9.404;2023-03-12T00:19:02;92253.47;;;1.95;76.87
65376;BME280;51976;47.332;9.404;2023-03-12T00:21:27;92247.66;;;1.98;76.71
65376;BME280;51976;47.332;9.404;2023-03-12T00:23:52;92250.78;;;1.56;77.40
65376;BME280;51976;47.332;9.404;2023-03-12T00:26:19;92237.03;;;1.59;77.71
65376;BME280;51976;47.332;9.404;2023-03-12T00:28:46;92245.28;;;1.80;77.32
65376;BME280;51976;47.332;9.404;2023-03-12T00:31:20;92253.22;;;1.96;76.84
65376;BME280;51976;47.332;9.404;2023-03-12T00:33:47;92250.22;;;1.54;77.81
65376;BME280;51976;47.332;9.404;2023-03-12T00:36:17;92225.50;;;1.54;77.81
65376;BME280;51976;47.332;9.404;2023-03-12T00:38:43;92256.56;;;1.87;77.27
65376;BME280;51976;47.332;9.404;2023-03-12T00:41:08;92242.63;;;1.80;76.85
65376;BME280;51976;47.332;9.404;2023-03-12T00:43:33;92228.22;;;1.76;76.54
65376;BME280;51976;47.332;9.404;2023-03-12T00:45:59;92257.41;;;1.92;76.82
65376;BME280;51976;47.332;9.404;2023-03-12T00:48:24;92257.19;;;1.94;76.69
65376;BME280;51976;47.332;9.404;2023-03-12T00:50:50;92256.13;;;1.95;76.95
65376;BME280;51976;47.332;9.404;2023-03-12T00:53:15;92260.41;;;1.96;76.89
65376;BME280;51976;47.332;9.404;2023-03-12T00:55:41;92246.00;;;1.92;76.59
65376;BME280;51976;47.332;9.404;2023-03-12T00:58:06;92233.06;;;1.79;77.01
65376;BME280;51976;47.332;9.404;2023-03-12T01:00:31;92255.31;;;1.94;76.81
65376;BME280;51976;47.332;9.404;2023-03-12T01:02:57;92255.31;;;1.94;76.75
65376;BME280;51976;47.332;9.404;2023-03-12T01:05:23;92253.78;;;1.98;76.60
65376;BME280;51976;47.332;9.404;2023-03-12T01:07:48;92205.75;;;1.66;76.69
65376;BME280;51976;47.332;9.404;2023-03-12T01:10:16;92257.34;;;2.04;76.65
65376;BME280;51976;47.332;9.404;2023-03-12T01:12:42;92258.31;;;1.98;76.51
65376;BME280;51976;47.332;9.404;2023-03-12T01:15:08;92266.28;;;1.98;76.60
65376;BME280;51976;47.332;9.404;2023-03-12T01:17:34;92258.34;;;1.81;76.82
65376;BME280;51976;47.332;9.404;2023-03-12T01:20:00;92265.91;;;1.89;76.85
65376;BME280;51976;47.332;9.404;2023-03-12T01:22:25;92268.56;;;1.89;76.58
65376;BME280;51976;47.332;9.404;2023-03-12T01:24:51;92266.63;;;1.85;76.98
65376;BME280;51976;47.332;9.404;2023-03-12T01:27:16;92269.19;;;1.96;76.42
65376;BME280;51976;47.332;9.404;2023-03-12T01:29:42;92258.91;;;1.83;76.68
65376;BME280;51976;47.332;9.404;2023-03-12T01:32:07;92276.22;;;1.86;76.71
65376;BME280;51976;47.332;9.404;2023-03-12T01:34:32;92259.53;;;1.74;76.55
65376;BME280;51976;47.332;9.404;2023-03-12T01:36:59;92264.53;;;1.87;76.59
65376;BME280;51976;47.332;9.404;2023-03-12T01:39:25;92276.84;;;1.93;76.43
65376;BME280;51976;47.332;9.404;2023-03-12T01:41:50;92278.44;;;1.94;76.65
65376;BME280;51976;47.332;9.404;2023-03-12T01:44:16;92278.53;;;1.99;76.55
65376;BME280;51976;47.332;9.404;2023-03-12T01:46:42;92267.31;;;1.97;76.32
65376;BME280;51976;47.332;9.404;2023-03-12T01:49:28;92273.94;;;1.94;76.61
65376;BME280;51976;47.332;9.404;2023-03-12T01:52:00;92275.06;;;1.98;76.61
65376;BME280;51976;47.332;9.404;2023-03-12T01:54:35;92271.78;;;1.91;76.59
65376;BME280;51976;47.332;9.404;2023-03-12T01:57:05;92274.44;;;1.91;76.83
65376;BME280;51976;47.332;9.404;2023-03-12T01:59:37;92280.28;;;1.93;76.62
65376;BME280;51976;47.332;9.404;2023-03-12T02:02:04;92257.53;;;1.81;76.75
65376;BME280;51976;47.332;9.404;2023-03-12T02:04:32;92268.72;;;1.66;77.65
65376;BME280;51976;47.332;9.404;2023-03-12T02:07:03;92248.22;;;1.61;77.22
65376;BME280;51976;47.332;9.404;2023-03-12T02:09:31;92250.47;;;1.36;78.14
65376;BME280;51976;47.332;9.404;2023-03-12T02:11:57;92273.22;;;1.65;78.25
65376;BME280;51976;47.332;9.404;2023-03-12T02:14:23;92268.97;;;1.31;79.16
65376;BME280;51976;47.332;9.404;2023-03-12T02:16:48;92275.97;;;1.54;78.91
65376;BME280;51976;47.332;9.404;2023-03-12T02:19:26;92230.91;;;1.59;78.21
65376;BME280;51976;47.332;9.404;2023-03-12T02:21:55;92275.91;;;1.82;77.75
65376;BME280;51976;47.332;9.404;2023-03-12T02:24:29;92249.88;;;1.67;77.77
65376;BME280;51976;47.332;9.404;2023-03-12T02:26:58;92270.41;;;1.89;77.39
65376;BME280;51976;47.332;9.404;2023-03-12T02:29:25;92272.03;;;1.90;76.96
65376;BME280;51976;47.332;9.404;2023-03-12T02:31:54;92279.19;;;1.89;77.24
65376;BME280;51976;47.332;9.404;2023-03-12T02:34:20;92270.03;;;1.63;77.79
65376;BME280;51976;47.332;9.404;2023-03-12T02:36:47;92273.19;;;1.60;78.38
65376;BME280;51976;47.332;9.404;2023-03-12T02:39:13;92259.63;;;1.45;78.42
65376;BME280;51976;47.332;9.404;2023-03-12T02:41:41;92274.13;;;1.71;78.13
65376;BME280;51976;47.332;9.404;2023-03-12T02:44:11;92279.59;;;1.81;77.93
65376;BME280;51976;47.332;9.404;2023-03-12T02:46:40;92282.00;;;1.66;78.26
65376;BME280;51976;47.332;9.404;2023-03-12T02:49:07;92284.53;;;1.56;78.86
65376;BME280;51976;47.332;9.404;2023-03-12T02:51:33;92254.22;;;1.40;78.63
65376;BME280;51976;47.332;9.404;2023-03-12T02:53:58;92272.03;;;1.73;78.28
65376;BME280;51976;47.332;9.404;2023-03-12T02:56:25;92273.66;;;1.57;78.76
65376;BME280;51976;47.332;9.404;2023-03-12T02:58:51;92280.88;;;1.79;78.29
65376;BME280;51976;47.332;9.404;2023-03-12T03:01:18;92261.25;;;1.63;78.33
65376;BME280;51976;47.332;9.404;2023-03-12T03:03:43;92280.31;;;1.77;78.44
65376;BME280;51976;47.332;9.404;2023-03-12T03:06:09;92280.47;;;1.70;78.43
65376;BME280;51976;47.332;9.404;2023-03-12T03:08:34;92280.25;;;1.72;78.61
65376;BME280;51976;47.332;9.404;2023-03-12T03:11:00;92283.47;;;1.90;78.37
65376;BME280;51976;47.332;9.404;2023-03-12T03:13:28;92282.34;;;1.86;78.20
65376;BME280;51976;47.332;9.404;2023-03-12T03:15:53;92287.22;;;1.94;77.92
65376;BME280;51976;47.332;9.404;2023-03-12T03:18:22;92288.59;;;1.97;78.01
65376;BME280;51976;47.332;9.404;2023-03-12T03:20:54;92291.09;;;2.03;77.76
65376;BME280;51976;47.332;9.404;2023-03-12T03:23:20;92285.31;;;1.90;77.88
65376;BME280;51976;47.332;9.404;2023-03-12T03:25:45;92284.09;;;1.97;77.71
65376;BME280;51976;47.332;9.404;2023-03-12T03:28:11;92270.75;;;1.76;78.18
65376;BME280;51976;47.332;9.404;2023-03-12T03:30:36;92294.41;;;1.94;78.05
65376;BME280;51976;47.332;9.404;2023-03-12T03:33:02;92268.97;;;1.81;78.03
65376;BME280;51976;47.332;9.404;2023-03-12T03:35:28;92273.31;;;1.87;78.30
65376;BME280;51976;47.332;9.404;2023-03-12T03:37:54;92271.50;;;1.93;77.85
65376;BME280;51976;47.332;9.404;2023-03-12T03:40:19;92287.16;;;1.89;78.07
65376;BME280;51976;47.332;9.404;2023-03-12T03:42:45;92278.97;;;1.91;78.17
65376;BME280;51976;47.332;9.404;2023-03-12T03:45:10;92283.72;;;1.89;78.15
65376;BME280;51976;47.332;9.404;2023-03-12T03:47:36;92286.19;;;1.79;78.52
65376;BME280;51976;47.332;9.404;2023-03-12T03:50:03;92287.66;;;1.69;79.19
65376;BME280;51976;47.332;9.404;2023-03-12T03:52:29;92310.06;;;1.90;78.89
65376;BME280;51976;47.332;9.404;2023-03-12T03:54:55;92292.16;;;1.86;78.66
65376;BME280;51976;47.332;9.404;2023-03-12T03:57:21;92299.72;;;1.94;78.47
65376;BME280;51976;47.332;9.404;2023-03-12T03:59:46;92298.97;;;1.98;78.14
65376;BME280;51976;47.332;9.404;2023-03-12T04:02:12;92285.56;;;1.88;78.69
65376;BME280;51976;47.332;9.404;2023-03-12T04:04:37;92292.66;;;1.83;78.97
65376;BME280;51976;47.332;9.404;2023-03-12T04:07:02;92293.69;;;1.82;79.19
65376;BME280;51976;47.332;9.404;2023-03-12T04:09:28;92282.81;;;1.83;79.24
65376;BME280;51976;47.332;9.404;2023-03-12T04:11:54;92288.09;;;2.00;78.53
65376;BME280;51976;47.332;9.404;2023-03-12T04:14:20;92280.25;;;1.72;78.95
65376;BME280;51976;47.332;9.404;2023-03-12T04:16:45;92276.69;;;1.66;79.33
65376;BME280;51976;47.332;9.404;2023-03-12T04:19:11;92292.28;;;1.96;78.77
65376;BME280;51976;47.332;9.404;2023-03-12T04:21:36;92278.63;;;1.70;78.73
65376;BME280;51976;47.332;9.404;2023-03-12T04:24:04;92285.94;;;1.97;78.68
65376;BME280;51976;47.332;9.404;2023-03-12T04:26:29;92286.34;;;2.06;78.39
65376;BME280;51976;47.332;9.404;2023-03-12T04:28:55;92286.00;;;2.02;78.53
65376;BME280;51976;47.332;9.404;2023-03-12T04:31:20;92280.78;;;2.07;78.44
65376;BME280;51976;47.332;9.404;2023-03-12T04:33:46;92262.13;;;1.85;78.49
65376;BME280;51976;47.332;9.404;2023-03-12T04:36:12;92275.31;;;1.97;78.54
65376;BME280;51976;47.332;9.404;2023-03-12T04:38:38;92263.97;;;1.85;78.39
65376;BME280;51976;47.332;9.404;2023-03-12T04:41:07;92278.72;;;1.76;79.42
65376;BME280;51976;47.332;9.404;2023-03-12T04:43:34;92287.03;;;1.62;80.00
65376;BME280;51976;47.332;9.404;2023-03-12T04:45:59;92280.31;;;1.77;79.74
65376;BME280;51976;47.332;9.404;2023-03-12T04:48:25;92276.84;;;1.93;79.44
65376;BME280;51976;47.332;9.404;2023-03-12T04:50:51;92283.44;;;2.07;79.06
65376;BME280;51976;47.332;9.404;2023-03-12T04:53:17;92280.28;;;1.93;79.17
65376;BME280;51976;47.332;9.404;2023-03-12T04:55:42;92272.44;;;1.82;79.66
65376;BME280;51976;47.332;9.404;2023-03-12T04:58:08;92251.50;;;1.68;79.85
65376;BME280;51976;47.332;9.404;2023-03-12T05:00:33;92209.50;;;1.49;79.97
65376;BME280;51976;47.332;9.404;2023-03-12T05:02:59;92250.69;;;1.85;80.05
65376;BME280;51976;47.332;9.404;2023-03-12T05:05:24;92241.03;;;1.79;79.98
65376;BME280;51976;47.332;9.404;2023-03-12T05:07:50;92217.47;;;1.49;80.44
65376;BME280;51976;47.332;9.404;2023-03-12T05:10:15;92241.09;;;1.67;80.27
65376;BME280;51976;47.332;9.404;2023-03-12T05:12:40;92235.56;;;1.85;79.98
65376;BME280;51976;47.332;9.404;2023-03-12T05:15:06;92249.69;;;2.08;79.10
65376;BME280;51976;47.332;9.404;2023-03-12T05:17:32;92238.84;;;1.76;79.33
65376;BME280;51976;47.332;9.404;2023-03-12T05:19:57;92240.13;;;1.73;79.56
65376;BME280;51976;47.332;9.404;2023-03-12T05:22:22;92248.47;;;1.98;79.10
65376;BME280;51976;47.332;9.404;2023-03-12T05:24:48;92246.53;;;2.11;78.58
65376;BME280;51976;47.332;9.404;2023-03-12T05:27:13;92255.97;;;2.01;78.85
65376;BME280;51976;47.332;9.404;2023-03-12T05:29:39;92221.97;;;2.03;78.38
65376;BME280;51976;47.332;9.404;2023-03-12T05:32:04;92227.69;;;2.12;78.06
65376;BME280;51976;47.332;9.404;2023-03-12T05:34:31;92224.88;;;2.24;77.73
65376;BME280;51976;47.332;9.404;2023-03-12T05:36:57;92247.44;;;2.38;77.75
65376;BME280;51976;47.332;9.404;2023-03-12T05:39:24;92241.63;;;2.41;77.84
65376;BME280;51976;47.332;9.404;2023-03-12T05:41:49;92236.09;;;2.48;77.52
65376;BME280;51976;47.332;9.404;2023-03-12T05:44:15;92229.41;;;2.23;78.08
65376;BME280;51976;47.332;9.404;2023-03-12T05:46:42;92239.28;;;2.45;77.80
65376;BME280;51976;47.332;9.404;2023-03-12T05:49:08;92230.09;;;2.35;77.51
65376;BME280;51976;47.332;9.404;2023-03-12T05:51:33;92241.47;;;2.53;77.58
65376;BME280;51976;47.332;9.404;2023-03-12T05:53:59;92225.97;;;2.45;77.39
65376;BME280;51976;47.332;9.404;2023-03-12T05:56:25;92219.53;;;2.41;77.35
65376;BME280;51976;47.332;9.404;2023-03-12T05:58:51;92251.25;;;2.47;77.63
65376;BME280;51976;47.332;9.404;2023-03-12T06:01:19;92236.84;;;2.43;77.47
65376;BME280;51976;47.332;9.404;2023-03-12T06:03:45;92259.59;;;2.56;77.27
65376;BME280;51976;47.332;9.404;2023-03-12T06:06:10;92225.34;;;2.37;77.44
65376;BME280;51976;47.332;9.404;2023-03-12T06:08:37;92243.00;;;2.49;77.33
65376;BME280;51976;47.332;9.404;2023-03-12T06:11:03;92260.16;;;2.58;77.40
65376;BME280;51976;47.332;9.404;2023-03-12T06:13:29;92257.25;;;2.59;77.25
65376;BME280;51976;47.332;9.404;2023-03-12T06:16:00;92223.72;;;2.36;77.35
65376;BME280;51976;47.332;9.404;2023-03-12T06:18:27;92233.44;;;2.48;77.20
65376;BME280;51976;47.332;9.404;2023-03-12T06:20:52;92243.94;;;2.59;77.21
65376;BME280;51976;47.332;9.404;2023-03-12T06:23:18;92251.25;;;2.25;78.42
65376;BME280;51976;47.332;9.404;2023-03-12T06:25:44;92248.25;;;2.22;78.66
65376;BME280;51976;47.332;9.404;2023-03-12T06:28:09;92252.91;;;2.31;78.74
65376;BME280;51976;47.332;9.404;2023-03-12T06:30:35;92248.84;;;2.46;78.03
65376;BME280;51976;47.332;9.404;2023-03-12T06:33:00;92253.47;;;2.55;77.74
65376;BME280;51976;47.332;9.404;2023-03-12T06:35:28;92244.13;;;2.53;77.57
65376;BME280;51976;47.332;9.404;2023-03-12T06:37:53;92265.06;;;2.66;77.56
65376;BME280;51976;47.332;9.404;2023-03-12T06:40:19;92266.09;;;2.65;77.30
65376;BME280;51976;47.332;9.404;2023-03-12T06:42:44;92261.78;;;2.59;77.31
65376;BME280;51976;47.332;9.404;2023-03-12T06:45:09;92288.63;;;2.57;77.51
65376;BME280;51976;47.332;9.404;2023-03-12T06:47:35;92294.88;;;2.46;78.12
65376;BME280;51976;47.332;9.404;2023-03-12T06:50:00;92298.63;;;2.50;78.21
65376;BME280;51976;47.332;9.404;2023-03-12T06:52:26;92286.59;;;2.43;77.79
65376;BME280;51976;47.332;9.404;2023-03-12T06:54:51;92311.41;;;2.70;77.64
65376;BME280;51976;47.332;9.404;2023-03-12T06:57:17;92312.31;;;2.59;78.41
65376;BME280;51976;47.332;9.404;2023-03-12T06:59:42;92324.50;;;2.55;78.83
65376;BME280;51976;47.332;9.404;2023-03-12T07:02:10;92329.72;;;2.66;79.19
65376;BME280;51976;47.332;9.404;2023-03-12T07:04:36;92348.59;;;2.65;78.50
65376;BME280;51976;47.332;9.404;2023-03-12T07:07:01;92321.53;;;2.51;78.88
65376;BME280;51976;47.332;9.404;2023-03-12T07:09:26;92295.41;;;2.48;79.87
65376;BME280;51976;47.332;9.404;2023-03-12T07:11:52;92316.09;;;2.85;79.98
65376;BME280;51976;47.332;9.404;2023-03-12T07:14:17;92305.38;;;3.01;79.62
65376;BME280;51976;47.332;9.404;2023-03-12T07:16:44;92301.09;;;3.22;79.06
65376;BME280;51976;47.332;9.404;2023-03-12T07:19:09;92337.44;;;3.60;77.80
65376;BME280;51976;47.332;9.404;2023-03-12T07:21:35;92342.06;;;3.70;77.28
65376;BME280;51976;47.332;9.404;2023-03-12T07:24:00;92319.09;;;3.37;78.05
65376;BME280;51976;47.332;9.404;2023-03-12T07:26:31;92326.63;;;3.45;78.06
65376;BME280;51976;47.332;9.404;2023-03-12T07:28:56;92318.88;;;3.70;77.20
65376;BME280;51976;47.332;9.404;2023-03-12T07:31:21;92316.00;;;3.77;76.63
65376;BME280;51976;47.332;9.404;2023-03-12T07:33:47;92340.25;;;4.07;76.12
65376;BME280;51976;47.332;9.404;2023-03-12T07:36:12;92308.28;;;4.13;75.25
65376;BME280;51976;47.332;9.404;2023-03-12T07:38:38;92331.91;;;4.31;75.03
65376;BME280;51976;47.332;9.404;2023-03-12T07:41:03;92341.50;;;4.32;75.21
65376;BME280;51976;47.332;9.404;2023-03-12T07:43:28;92330.78;;;4.27;75.20
65376;BME280;51976;47.332;9.404;2023-03-12T07:45:54;92340.75;;;4.36;75.03
65376;BME280;51976;47.332;9.404;2023-03-12T07:48:19;92353.34;;;4.46;74.95
65376;BME280;51976;47.332;9.404;2023-03-12T07:50:45;92340.28;;;4.50;74.65
65376;BME280;51976;47.332;9.404;2023-03-12T07:53:11;92339.25;;;4.56;73.74
65376;BME280;51976;47.332;9.404;2023-03-12T07:55:36;92352.41;;;4.67;73.96
65376;BME280;51976;47.332;9.404;2023-03-12T07:58:02;92358.53;;;4.63;74.05
65376;BME280;51976;47.332;9.404;2023-03-12T08:00:28;92345.72;;;4.65;73.92
65376;BME280;51976;47.332;9.404;2023-03-12T08:02:54;92343.31;;;4.63;74.13
65376;BME280;51976;47.332;9.404;2023-03-12T08:05:19;92336.38;;;4.62;74.08
65376;BME280;51976;47.332;9.404;2023-03-12T08:07:49;92361.81;;;4.80;74.22
65376;BME280;51976;47.332;9.404;2023-03-12T08:10:15;92373.59;;;4.84;74.05
65376;BME280;51976;47.332;9.404;2023-03-12T08:12:40;92365.81;;;4.78;73.84
65376;BME280;51976;47.332;9.404;2023-03-12T08:15:06;92376.81;;;4.86;73.83
65376;BME280;51976;47.332;9.404;2023-03-12T08:17:33;92386.75;;;4.96;73.81
65376;BME280;51976;47.332;9.404;2023-03-12T08:19:58;92377.66;;;4.97;73.68
65376;BME280;51976;47.332;9.404;2023-03-12T08:22:23;92387.59;;;5.06;73.46
65376;BME280;51976;47.332;9.404;2023-03-12T08:24:49;92348.53;;;4.95;72.77
65376;BME280;51976;47.332;9.404;2023-03-12T08:27:15;92393.06;;;5.32;72.57
65376;BME280;51976;47.332;9.404;2023-03-12T08:29:40;92354.53;;;5.18;72.02
65376;BME280;51976;47.332;9.404;2023-03-12T08:32:06;92334.16;;;5.01;71.97
65376;BME280;51976;47.332;9.404;2023-03-12T08:34:32;92389.09;;;5.39;71.50
65376;BME280;51976;47.332;9.404;2023-03-12T08:36:58;92392.84;;;5.38;71.40
65376;BME280;51976;47.332;9.404;2023-03-12T08:39:24;92387.75;;;5.47;71.47
65376;BME280;51976;47.332;9.404;2023-03-12T08:41:49;92391.78;;;5.39;71.49
65376;BME280;51976;47.332;9.404;2023-03-12T08:44:20;92399.75;;;5.34;71.35
65376;BME280;51976;47.332;9.404;2023-03-12T08:46:45;92404.03;;;5.35;71.84
65376;BME280;51976;47.332;9.404;2023-03-12T08:49:11;92405.16;;;5.44;71.43
65376;BME280;51976;47.332;9.404;2023-03-12T08:51:37;92397.66;;;5.41;71.62
65376;BME280;51976;47.332;9.404;2023-03-12T08:54:02;92405.41;;;5.43;71.92
65376;BME280;51976;47.332;9.404;2023-03-12T08:56:29;92403.78;;;5.37;71.82
65376;BME280;51976;47.332;9.404;2023-03-12T08:58:55;92417.97;;;5.48;71.91
65376;BME280;51976;47.332;9.404;2023-03-12T09:01:20;92417.22;;;5.57;71.59
65376;BME280;51976;47.332;9.404;2023-03-12T09:03:45;92422.31;;;5.59;71.83
65376;BME280;51976;47.332;9.404;2023-03-12T09:06:13;92427.13;;;5.57;71.79
65376;BME280;51976;47.332;9.404;2023-03-12T09:08:42;92425.31;;;5.77;71.48
65376;BME280;51976;47.332;9.404;2023-03-12T09:11:08;92408.97;;;5.64;71.62
65376;BME280;51976;47.332;9.404;2023-03-12T09:13:34;92423.72;;;5.82;71.53
65376;BME280;51976;47.332;9.404;2023-03-12T09:16:00;92409.50;;;5.66;71.46
65376;BME280;51976;47.332;9.404;2023-03-12T09:18:27;92425.31;;;5.83;71.05
65376;BME280;51976;47.332;9.404;2023-03-12T09:20:53;92422.38;;;5.79;71.64
65376;BME280;51976;47.332;9.404;2023-03-12T09:23:18;92425.84;;;5.79;72.18
65376;BME280;51976;47.332;9.404;2023-03-12T09:25:45;92428.78;;;5.78;71.98
65376;BME280;51976;47.332;9.404;2023-03-12T09:28:12;92440.91;;;5.91;71.82
65376;BME280;51976;47.332;9.404;2023-03-12T09:30:37;92410.06;;;5.68;71.59
65376;BME280;51976;47.332;9.404;2023-03-12T09:33:03;92445.72;;;5.89;71.26
65376;BME280;51976;47.332;9.404;2023-03-12T09:35:28;92416.25;;;5.84;71.44
65376;BME280;51976;47.332;9.404;2023-03-12T09:37:55;92450.56;;;5.97;71.07
65376;BME280;51976;47.332;9.404;2023-03-12T09:40:23;92433.88;;;5.79;71.37
65376;BME280;51976;47.332;9.404;2023-03-12T09:42:52;92446.28;;;6.06;71.25
65376;BME280;51976;47.332;9.404;2023-03-12T09:45:22;92447.88;;;6.07;71.44
65376;BME280;51976;47.332;9.404;2023-03-12T09:47:52;92448.16;;;6.10;71.11
65376;BME280;51976;47.332;9.404;2023-03-12T09:50:31;92449.25;;;6.15;71.26
65376;BME280;51976;47.332;9.404;2023-03-12T09:53:03;92451.66;;;6.11;71.66
65376;BME280;51976;47.332;9.404;2023-03-12T09:55:38;92447.88;;;6.07;71.87
65376;BME280;51976;47.332;9.404;2023-03-12T09:58:12;92450.28;;;6.03;72.13
65376;BME280;51976;47.332;9.404;2023-03-12T10:00:38;92451.66;;;6.11;71.94
65376;BME280;51976;47.332;9.404;2023-03-12T10:03:31;92453.81;;;6.14;71.83
65376;BME280;51976;47.332;9.404;2023-03-12T10:06:15;92438.78;;;6.08;71.59
65376;BME280;51976;47.332;9.404;2023-03-12T10:09:18;92464.81;;;6.23;71.52
65376;BME280;51976;47.332;9.404;2023-03-12T10:15:07;92442.84;;;6.16;71.55
65376;BME280;51976;47.332;9.404;2023-03-12T10:23:47;92462.59;;;5.99;71.77
65376;BME280;51976;47.332;9.404;2023-03-12T10:26:24;92449.72;;;5.91;71.65
65376;BME280;51976;47.332;9.404;2023-03-12T10:28:58;92482.94;;;6.05;72.13
65376;BME280;51976;47.332;9.404;2023-03-12T10:31:35;92476.81;;;6.15;71.49
65376;BME280;51976;47.332;9.404;2023-03-12T10:34:13;92468.22;;;6.08;71.53
65376;BME280;51976;47.332;9.404;2023-03-12T10:36:40;92460.22;;;6.08;71.24
65376;BME280;51976;47.332;9.404;2023-03-12T10:39:13;92480.88;;;6.38;71.21
65376;BME280;51976;47.332;9.404;2023-03-12T10:41:40;92485.44;;;6.42;70.66
65376;BME280;51976;47.332;9.404;2023-03-12T10:44:08;92477.69;;;6.46;70.54
65376;BME280;51976;47.332;9.404;2023-03-12T10:49:34;92487.84;;;6.39;70.99
65376;BME280;51976;47.332;9.404;2023-03-12T10:52:09;92480.63;;;6.44;70.93
65376;BME280;51976;47.332;9.404;2023-03-12T10:54:40;92484.41;;;6.54;71.27
65376;BME280;51976;47.332;9.404;2023-03-12T10:57:08;92489.19;;;6.57;71.20
65376;BME280;51976;47.332;9.404;2023-03-12T10:59:35;92487.06;;;6.54;71.31
65376;BME280;51976;47.332;9.404;2023-03-12T11:02:29;92491.38;;;6.70;71.47
65376;BME280;51976;47.332;9.404;2023-03-12T11:04:53;92467.50;;;6.43;71.64
65376;BME280;51976;47.332;9.404;2023-03-12T11:07:22;92482.81;;;6.73;71.27
65376;BME280;51976;47.332;9.404;2023-03-12T11:10:14;92508.78;;;6.88;71.72
65376;BME280;51976;47.332;9.404;2023-03-12T11:12:56;92503.41;;;6.88;71.24
65376;BME280;51976;47.332;9.404;2023-03-12T11:15:29;92512.25;;;6.88;70.74
65376;BME280;51976;47.332;9.404;2023-03-12T11:18:22;92521.41;;;6.82;71.64
65376;BME280;51976;47.332;9.404;2023-03-12T11:20:51;92525.13;;;6.86;71.55
65376;BME280;51976;47.332;9.404;2023-03-12T11:23:26;92528.38;;;6.83;71.18
65376;BME280;51976;47.332;9.404;2023-03-12T11:25:55;92524.84;;;6.72;70.94
65376;BME280;51976;47.332;9.404;2023-03-12T11:28:24;92524.59;;;6.79;70.65
65376;BME280;51976;47.332;9.404;2023-03-12T11:30:52;92505.28;;;6.87;69.96
65376;BME280;51976;47.332;9.404;2023-03-12T11:33:20;92531.56;;;6.95;70.29
65376;BME280;51976;47.332;9.404;2023-03-12T11:36:23;92511.47;;;6.93;70.31
65376;BME280;51976;47.332;9.404;2023-03-12T11:39:29;92516.84;;;6.98;70.50
65376;BME280;51976;47.332;9.404;2023-03-12T11:42:32;92535.06;;;7.21;69.99
65376;BME280;51976;47.332;9.404;2023-03-12T11:45:17;92531.03;;;7.13;71.09
65376;BME280;51976;47.332;9.404;2023-03-12T11:47:58;92529.94;;;6.89;71.98
65376;BME280;51976;47.332;9.404;2023-03-12T11:50:41;92537.72;;;6.70;72.19
65376;BME280;51976;47.332;9.404;2023-03-12T11:53:40;92536.91;;;6.75;72.78
65376;BME280;51976;47.332;9.404;2023-03-12T11:56:40;92534.78;;;6.82;72.78
65376;BME280;51976;47.332;9.404;2023-03-12T11:59:23;92541.22;;;6.81;73.25
65376;BME280;51976;47.332;9.404;2023-03-12T12:05:09;92545.44;;;6.52;73.89
65376;BME280;51976;47.332;9.404;2023-03-12T12:08:00;92564.19;;;6.47;73.76
65376;BME280;51976;47.332;9.404;2023-03-12T12:11:26;92552.91;;;6.44;74.51
65376;BME280;51976;47.332;9.404;2023-03-12T12:13:39;92564.41;;;6.40;73.94
65376;BME280;51976;47.332;9.404;2023-03-12T12:16:25;92567.38;;;6.43;74.41
65376;BME280;51976;47.332;9.404;2023-03-12T12:19:10;92570.06;;;6.43;74.42
65376;BME280;51976;47.332;9.404;2023-03-12T12:22:05;92577.53;;;6.41;74.26
65376;BME280;51976;47.332;9.404;2023-03-12T12:27:56;92558.31;;;6.60;74.04
65376;BME280;51976;47.332;9.404;2023-03-12T12:34:05;92571.72;;;6.70;73.45
65376;BME280;51976;47.332;9.404;2023-03-12T12:36:34;92565.84;;;6.78;73.13
65376;BME280;51976;47.332;9.404;2023-03-12T12:39:07;92562.91;;;6.79;72.88
65376;BME280;51976;47.332;9.404;2023-03-12T12:41:38;92561.28;;;6.89;72.67
65376;BME280;51976;47.332;9.404;2023-03-12T12:44:12;92568.25;;;6.90;71.90
65376;BME280;51976;47.332;9.404;2023-03-12T12:46:43;92559.41;;;6.84;72.64
65376;BME280;51976;47.332;9.404;2023-03-12T12:49:13;92572.56;;;6.96;71.32
65376;BME280;51976;47.332;9.404;2023-03-12T12:51:47;92565.31;;;6.91;71.12
65376;BME280;51976;47.332;9.404;2023-03-12T12:54:42;92571.22;;;6.88;71.60
65376;BME280;51976;47.332;9.404;2023-03-12T12:57:49;92574.72;;;6.99;71.34
65376;BME280;51976;47.332;9.404;2023-03-12T13:00:49;92571.75;;;6.95;71.35
65376;BME280;51976;47.332;9.404;2023-03-12T13:03:17;92544.16;;;6.90;70.80
65376;BME280;51976;47.332;9.404;2023-03-12T13:05:46;92553.81;;;6.96;70.24
65376;BME280;51976;47.332;9.404;2023-03-12T13:08:59;92551.94;;;6.96;70.16
65376;BME280;51976;47.332;9.404;2023-03-12T13:11:29;92561.59;;;7.07;69.70
65376;BME280;51976;47.332;9.404;2023-03-12T13:14:18;92558.38;;;7.10;69.87
65376;BME280;51976;47.332;9.404;2023-03-12T13:16:45;92564.81;;;7.04;70.37
65376;BME280;51976;47.332;9.404;2023-03-12T13:19:24;92566.94;;;6.92;70.47
65376;BME280;51976;47.332;9.404;2023-03-12T13:22:05;92563.16;;;6.68;71.36
65376;BME280;51976;47.332;9.404;2023-03-12T13:24:39;92575.50;;;6.74;71.29
65376;BME280;51976;47.332;9.404;2023-03-12T13:27:28;92574.66;;;6.63;71.21
65376;BME280;51976;47.332;9.404;2023-03-12T13:29:54;92500.13;;;6.25;72.49
65376;BME280;51976;47.332;9.404;2023-03-12T13:33:03;92580.31;;;6.72;72.58
65376;BME280;51976;47.332;9.404;2023-03-12T13:35:30;92577.59;;;6.52;72.93
65376;BME280;51976;47.332;9.404;2023-03-12T13:38:00;92593.94;;;6.55;72.18
65376;BME280;51976;47.332;9.404;2023-03-12T13:40:34;92587.25;;;6.68;72.61
65376;BME280;51976;47.332;9.404;2023-03-12T13:43:12;92555.88;;;6.43;72.24
65376;BME280;51976;47.332;9.404;2023-03-12T13:46:04;92582.19;;;6.76;71.69